Millwood, Kentucky
Current Conditions -  °F | °C
As of 7:18 AM on Monday 22 Dec 2014 (Local Time) from KBWG Reporting Station
Broken Clouds Broken Clouds  
Wind Chill: 39°   Ceiling: 1700
Heat Index: 39°   Visibility: 10mi
Dew Point: 36°   Wind: 0mph
Humidity: 89%   Direction: NA
Pressure: 29.95"   Gusts: NA
Location:  37.45°N, 86.39°W
Report Text: KBWG 221318Z AUTO 00000KT 10SM BKN017 BKN027 04/02 A2995 RMK AO2 T00390022
Loading
Personal Weather Stations






























Interactive Weather Map New forecast layout! Learn more

10-Day Weather Forecast

Advertisements
Track Severe Weather on mobile